Time;durP1;ratioP1;P1;durP2;ratioP2;P2;SDS_P1;SDS_P2;PMS_P1;PMS_P2;Temp;Humidity;BMP_temperature;BMP_pressure;BME280_temperature;BME280_humidity;BME280_pressure;Samples;Min_cycle;Max_cycle;Signal;HPM_P1;HPM_P2
2023/04/19 00:02:21;;;;;;;22.83;13.82;;;;;;;9.16;100.00;102773.94;5041662;28;20033;-79
2023/04/19 00:04:47;;;;;;;25.05;15.23;;;;;;;9.07;100.00;102763.91;5020172;28;20061;-79
2023/04/19 00:07:12;;;;;;;19.88;13.65;;;;;;;8.91;100.00;102763.47;5039511;28;20034;-79
2023/04/19 00:09:38;;;;;;;20.65;13.98;;;;;;;8.98;100.00;102772.25;5025778;28;20061;-79
2023/04/19 00:12:04;;;;;;;22.63;14.48;;;;;;;9.11;100.00;102770.50;5042310;28;20067;-79
2023/04/19 00:14:29;;;;;;;19.95;12.57;;;;;;;9.04;100.00;102764.53;5039500;28;20061;-79
2023/04/19 00:16:55;;;;;;;19.77;13.25;;;;;;;9.14;100.00;102762.28;5019918;28;20071;-79
2023/04/19 00:19:21;;;;;;;23.85;13.55;;;;;;;9.21;100.00;102764.59;5041671;28;20459;-79
2023/04/19 00:21:46;;;;;;;20.92;14.20;;;;;;;9.16;100.00;102768.34;5037092;28;20477;-79
2023/04/19 00:24:12;;;;;;;19.55;13.93;;;;;;;9.06;100.00;102765.03;5023067;28;20154;-79
2023/04/19 00:26:37;;;;;;;25.00;15.52;;;;;;;8.90;100.00;102753.47;5042803;28;20396;-79
2023/04/19 00:29:02;;;;;;;22.95;15.85;;;;;;;8.94;100.00;102760.88;5035072;28;20037;-79
2023/04/19 00:31:28;;;;;;;23.23;16.23;;;;;;;8.93;100.00;102764.81;5025551;28;20029;-79
2023/04/19 00:33:53;;;;;;;22.67;13.25;;;;;;;8.83;100.00;102753.91;5040453;28;20021;-79
2023/04/19 00:36:19;;;;;;;23.23;14.20;;;;;;;8.86;100.00;102758.84;5039701;28;20503;-79
2023/04/19 00:38:44;;;;;;;26.80;14.65;;;;;;;8.96;100.00;102757.78;5038290;28;20116;-79
2023/04/19 00:41:10;;;;;;;25.23;14.55;;;;;;;8.92;100.00;102763.16;5029078;28;20033;-79
2023/04/19 00:43:35;;;;;;;27.50;15.95;;;;;;;8.52;100.00;102765.06;5026581;28;20503;-79
2023/04/19 00:46:01;;;;;;;27.08;15.07;;;;;;;8.79;100.00;102763.25;5040893;28;20060;-79
2023/04/19 00:48:27;;;;;;;23.33;15.13;;;;;;;8.74;100.00;102758.63;5048119;28;20236;-79
2023/04/19 00:50:52;;;;;;;30.67;15.88;;;;;;;8.57;100.00;102752.94;5021360;28;20548;-79
2023/04/19 00:53:17;;;;;;;24.90;15.13;;;;;;;8.73;100.00;102743.84;5041223;28;20045;-79
2023/04/19 00:55:43;;;;;;;20.55;13.80;;;;;;;8.78;100.00;102753.22;5024407;28;20071;-79
2023/04/19 00:58:08;;;;;;;25.67;14.55;;;;;;;8.91;100.00;102749.50;5025550;28;20451;-79
2023/04/19 01:00:35;;;;;;;24.73;14.20;;;;;;;8.72;100.00;102753.34;5040871;28;20032;-79
2023/04/19 01:03:01;;;;;;;21.13;13.13;;;;;;;8.85;100.00;102751.59;5022456;28;20056;-79
2023/04/19 01:05:26;;;;;;;24.23;13.13;;;;;;;8.89;100.00;102746.22;5040691;28;20706;-79
2023/04/19 01:07:51;;;;;;;23.65;14.95;;;;;;;8.85;100.00;102756.38;5021464;28;20040;-79
2023/04/19 01:10:17;;;;;;;29.20;14.43;;;;;;;8.75;100.00;102751.91;5048954;28;20116;-79
2023/04/19 01:12:43;;;;;;;23.77;14.35;;;;;;;8.94;100.00;102746.09;5024659;28;20901;-79
2023/04/19 01:15:09;;;;;;;26.50;15.45;;;;;;;8.77;100.00;102743.19;5042664;28;20029;-79
2023/04/19 01:17:34;;;;;;;22.40;13.50;;;;;;;9.02;100.00;102748.06;5044703;28;20025;-79
2023/04/19 01:20:07;;;;;;;26.73;15.98;;;;;;;8.75;100.00;102741.56;5044336;28;20457;-79
2023/04/19 01:22:33;;;;;;;24.33;14.98;;;;;;;8.87;100.00;102751.31;5026812;28;20061;-79
2023/04/19 01:24:59;;;;;;;22.50;14.68;;;;;;;8.77;100.00;102738.44;5040850;28;20087;-79
2023/04/19 01:27:25;;;;;;;26.23;15.30;;;;;;;8.59;100.00;102734.72;5043769;28;20033;-79
2023/04/19 01:29:50;;;;;;;23.30;13.70;;;;;;;8.86;100.00;102744.91;5024642;28;20041;-79
2023/04/19 01:32:16;;;;;;;27.65;15.77;;;;;;;8.72;100.00;102742.19;5040844;28;20031;-79
2023/04/19 01:34:41;;;;;;;27.25;15.48;;;;;;;8.71;100.00;102740.53;5047514;28;20112;-79
2023/04/19 01:37:07;;;;;;;23.48;13.02;;;;;;;8.78;100.00;102744.84;5026456;28;20063;-79
2023/04/19 01:39:32;;;;;;;23.67;14.98;;;;;;;8.66;100.00;102748.22;5021509;28;20041;-79
2023/04/19 01:41:58;;;;;;;25.80;15.13;;;;;;;8.75;100.00;102747.13;5023473;28;20119;-79
2023/04/19 01:44:23;;;;;;;22.95;14.55;;;;;;;8.80;100.00;102748.16;5030424;28;20028;-79
2023/04/19 01:46:48;;;;;;;21.63;14.23;;;;;;;8.74;100.00;102739.06;5023127;28;20029;-79
2023/04/19 01:49:15;;;;;;;25.38;15.55;;;;;;;8.74;100.00;102736.28;5021577;28;20100;-79
2023/04/19 01:51:40;;;;;;;26.65;14.48;;;;;;;8.78;100.00;102744.84;5021237;28;20029;-79
2023/04/19 01:54:06;;;;;;;25.70;15.27;;;;;;;8.71;100.00;102734.97;5034549;28;20027;-79
2023/04/19 01:56:31;;;;;;;21.55;13.00;;;;;;;8.70;100.00;102738.88;5021166;28;20039;-79
2023/04/19 01:58:57;;;;;;;22.85;14.48;;;;;;;8.73;100.00;102745.81;5033214;28;20098;-79
2023/04/19 02:01:22;;;;;;;24.15;14.73;;;;;;;8.68;100.00;102746.75;5023663;28;20040;-79
2023/04/19 02:03:48;;;;;;;22.55;13.93;;;;;;;8.64;100.00;102745.75;5029783;28;20486;-79
2023/04/19 02:06:13;;;;;;;29.23;14.88;;;;;;;8.77;100.00;102744.03;5026598;28;20026;-79
2023/04/19 02:08:39;;;;;;;23.95;15.35;;;;;;;8.69;100.00;102742.84;5012055;28;20272;-79
2023/04/19 02:11:09;;;;;;;20.25;12.73;;;;;;;8.71;100.00;102748.94;5033814;28;20025;-79
2023/04/19 02:13:35;;;;;;;23.02;13.68;;;;;;;8.72;100.00;102750.56;5010166;28;20033;-79
2023/04/19 02:16:01;;;;;;;24.98;13.52;;;;;;;8.60;100.00;102750.34;5028710;28;20563;-79
2023/04/19 02:18:28;;;;;;;23.25;14.73;;;;;;;8.48;100.00;102742.53;5038335;28;20561;-79
2023/04/19 02:21:00;;;;;;;23.52;13.35;;;;;;;8.60;100.00;102744.75;5036581;28;20489;-79
2023/04/19 02:23:26;;;;;;;19.15;12.88;;;;;;;8.71;100.00;102743.34;5018489;28;20052;-79
2023/04/19 02:25:52;;;;;;;22.85;13.52;;;;;;;8.81;100.00;102744.19;5018912;28;20489;-79
2023/04/19 02:28:17;;;;;;;23.77;13.13;;;;;;;8.72;100.00;102746.94;5019970;28;20036;-79
2023/04/19 02:30:43;;;;;;;22.42;14.10;;;;;;;8.60;100.00;102750.34;5013633;28;20041;-79
2023/04/19 02:33:08;;;;;;;21.67;13.45;;;;;;;8.67;100.00;102745.13;5030513;28;20518;-79
2023/04/19 02:35:33;;;;;;;19.92;12.23;;;;;;;8.65;100.00;102730.66;5036020;28;20063;-79
2023/04/19 02:38:03;;;;;;;23.60;12.70;;;;;;;8.64;100.00;102744.94;5028401;28;20021;-79
2023/04/19 02:40:28;;;;;;;20.60;12.35;;;;;;;8.67;100.00;102747.91;5036082;28;20389;-79
2023/04/19 02:42:54;;;;;;;18.52;10.88;;;;;;;8.62;100.00;102747.22;5018153;28;20029;-79
2023/04/19 02:45:19;;;;;;;22.02;11.70;;;;;;;8.57;100.00;102739.78;5020249;28;20028;-79
2023/04/19 02:47:45;;;;;;;19.02;12.18;;;;;;;8.56;100.00;102749.34;5039481;28;20029;-79
2023/04/19 02:50:12;;;;;;;19.45;11.60;;;;;;;8.58;100.00;102752.63;5032766;28;20036;-79
2023/04/19 02:52:38;;;;;;;17.10;10.65;;;;;;;8.56;100.00;102754.91;5036973;28;20102;-79
2023/04/19 02:55:04;;;;;;;21.38;11.63;;;;;;;8.44;100.00;102760.25;5016296;28;20079;-79
2023/04/19 02:57:29;;;;;;;20.92;10.73;;;;;;;8.42;100.00;102765.31;5029634;28;20051;-79
2023/04/19 02:59:55;;;;;;;16.05;10.43;;;;;;;8.41;100.00;102770.06;5018112;28;20036;-79
2023/04/19 03:02:20;;;;;;;20.55;10.63;;;;;;;8.34;100.00;102759.31;5034989;28;20028;-79
2023/04/19 03:04:46;;;;;;;19.88;11.38;;;;;;;8.37;100.00;102768.19;5035204;28;20056;-79
2023/04/19 03:07:12;;;;;;;18.52;11.00;;;;;;;8.57;100.00;102770.50;5031493;28;20025;-79
2023/04/19 03:09:38;;;;;;;16.73;9.77;;;;;;;8.62;100.00;102766.75;5035637;28;20503;-79
2023/04/19 03:12:04;;;;;;;16.58;9.90;;;;;;;8.77;100.00;102771.13;5041410;28;20037;-79
2023/04/19 03:14:29;;;;;;;17.98;11.20;;;;;;;8.57;100.00;102770.50;5031364;28;20033;-79
2023/04/19 03:16:55;;;;;;;16.27;9.82;;;;;;;8.47;100.00;102776.34;5019340;28;20036;-79
2023/04/19 03:19:20;;;;;;;16.40;10.13;;;;;;;8.35;100.00;102760.97;5026430;28;20025;-79
2023/04/19 03:21:46;;;;;;;16.33;9.40;;;;;;;8.41;100.00;102758.06;5033359;28;20056;-79
2023/04/19 03:24:11;;;;;;;16.63;9.73;;;;;;;8.36;100.00;102767.38;5029332;28;20033;-79
2023/04/19 03:26:37;;;;;;;14.52;10.27;;;;;;;8.53;100.00;102761.13;5037170;28;20113;-79
2023/04/19 03:29:02;;;;;;;17.88;9.32;;;;;;;8.55;100.00;102753.25;5044282;28;20409;-79
2023/04/19 03:31:27;;;;;;;18.75;10.05;;;;;;;8.47;100.00;102751.22;5036716;28;20036;-79
2023/04/19 03:33:53;;;;;;;20.90;10.57;;;;;;;8.37;100.00;102748.66;5027911;28;20033;-79
2023/04/19 03:36:18;;;;;;;18.40;9.98;;;;;;;8.50;100.00;102750.59;5040568;28;20029;-79
2023/04/19 03:38:43;;;;;;;18.08;10.27;;;;;;;8.54;100.00;102751.63;5040378;28;20022;-79
2023/04/19 03:41:25;;;;;;;15.88;10.07;;;;;;;8.28;100.00;102752.19;5024689;28;20501;-79
2023/04/19 03:43:51;;;;;;;15.82;10.80;;;;;;;8.21;100.00;102740.66;5037432;28;20619;-79
2023/04/19 03:46:16;;;;;;;18.23;10.70;;;;;;;8.17;100.00;102738.81;5030542;28;20116;-79
2023/04/19 03:48:42;;;;;;;15.07;10.27;;;;;;;8.39;100.00;102744.44;5029108;28;20102;-79
2023/04/19 03:51:07;;;;;;;17.80;9.93;;;;;;;8.17;100.00;102747.19;5038598;28;20021;-79
2023/04/19 03:53:32;;;;;;;17.85;11.07;;;;;;;8.31;100.00;102746.00;5022591;28;20082;-79
2023/04/19 03:55:58;;;;;;;17.05;10.38;;;;;;;8.39;100.00;102732.41;5028133;28;20082;-79
2023/04/19 03:58:23;;;;;;;13.75;9.73;;;;;;;8.44;100.00;102735.94;5029701;28;20037;-79
2023/04/19 04:00:49;;;;;;;17.65;10.13;;;;;;;8.22;100.00;102752.63;5020271;28;20037;-79
2023/04/19 04:03:15;;;;;;;21.95;10.40;;;;;;;8.28;100.00;102749.41;5043043;28;20032;-79
2023/04/19 04:05:40;;;;;;;18.92;10.63;;;;;;;8.47;98.76;102751.22;5032579;28;20029;-79
2023/04/19 04:08:05;;;;;;;12.90;9.75;;;;;;;8.23;99.11;102746.75;5037819;28;20120;-79
2023/04/19 04:10:31;;;;;;;15.82;9.57;;;;;;;8.39;98.53;102738.84;5024006;28;20119;-79
2023/04/19 04:12:56;;;;;;;18.58;10.07;;;;;;;8.18;97.96;102738.53;5024350;28;20144;-79
2023/04/19 04:15:21;;;;;;;14.35;9.40;;;;;;;8.41;96.88;102752.47;5021552;28;20123;-79
2023/04/19 04:17:47;;;;;;;17.10;9.93;;;;;;;8.37;95.11;102745.84;5025176;28;20031;-79
2023/04/19 04:20:12;;;;;;;15.00;9.10;;;;;;;8.48;97.52;102758.47;5033043;28;20059;-79
2023/04/19 04:22:42;;;;;;;21.30;9.50;;;;;;;8.21;94.65;102742.63;5036113;28;20076;-79
2023/04/19 04:25:08;;;;;;;20.88;10.77;;;;;;;8.22;94.57;102750.69;5012378;28;20025;-79
2023/04/19 04:27:34;;;;;;;15.77;8.88;;;;;;;8.30;93.07;102752.69;5033592;28;20439;-79
2023/04/19 04:30:00;;;;;;;15.20;8.80;;;;;;;8.05;93.82;102750.53;5017801;28;20668;-79
2023/04/19 04:32:26;;;;;;;14.48;9.40;;;;;;;7.94;95.06;102753.56;5040492;28;20044;-79
2023/04/19 04:34:51;;;;;;;18.25;9.23;;;;;;;8.12;95.05;102756.50;5026676;28;20051;-79
2023/04/19 04:37:17;;;;;;;13.73;8.98;;;;;;;8.23;93.27;102755.13;5032523;28;20041;-79
2023/04/19 04:39:42;;;;;;;13.82;8.02;;;;;;;8.22;94.60;102764.66;5020892;28;20090;-79
2023/04/19 04:42:11;;;;;;;13.75;9.38;;;;;;;8.03;94.89;102758.38;5040079;28;20124;-79
2023/04/19 04:44:37;;;;;;;19.70;10.13;;;;;;;7.92;94.33;102766.97;5035939;28;20033;-79
2023/04/19 04:47:03;;;;;;;14.73;8.70;;;;;;;7.96;95.04;102766.38;5033628;28;20033;-78
2023/04/19 04:49:29;;;;;;;14.85;9.40;;;;;;;7.72;94.67;102765.50;5039419;28;20027;-79
2023/04/19 04:51:54;;;;;;;18.08;9.40;;;;;;;7.88;93.98;102765.97;5021466;28;20036;-79
2023/04/19 04:54:20;;;;;;;16.20;9.85;;;;;;;7.63;95.49;102772.94;5024533;28;20396;-79
2023/04/19 04:56:45;;;;;;;14.95;8.82;;;;;;;7.70;92.94;102766.94;5021751;28;20036;-79
2023/04/19 04:59:10;;;;;;;12.48;7.63;;;;;;;7.72;95.33;102767.47;5037427;28;20040;-79
2023/04/19 05:01:36;;;;;;;12.77;7.90;;;;;;;7.70;92.71;102773.34;5022330;28;20037;-79
2023/04/19 05:04:01;;;;;;;12.95;7.70;;;;;;;7.67;91.43;102767.56;5034816;28;20025;-78
2023/04/19 05:06:27;;;;;;;13.68;7.70;;;;;;;7.52;90.03;102777.06;5021916;28;20108;-79
2023/04/19 05:08:52;;;;;;;15.15;7.95;;;;;;;7.54;88.64;102781.19;5025659;28;20090;-79
2023/04/19 05:11:19;;;;;;;11.25;7.47;;;;;;;7.49;90.03;102772.13;5022403;28;20396;-79
2023/04/19 05:13:44;;;;;;;13.20;7.82;;;;;;;7.64;92.23;102779.34;5035900;28;20393;-79
2023/04/19 05:16:09;;;;;;;14.80;7.93;;;;;;;7.36;88.68;102784.94;5039793;28;20037;-79
2023/04/19 05:18:35;;;;;;;13.25;8.18;;;;;;;7.33;89.44;102791.09;5022135;28;20025;-79
2023/04/19 05:21:00;;;;;;;10.60;6.72;;;;;;;7.69;90.29;102793.97;5038649;28;20037;-78
2023/04/19 05:23:26;;;;;;;12.93;7.45;;;;;;;7.51;90.24;102787.41;5038482;28;20024;-79
2023/04/19 05:25:51;;;;;;;13.10;6.90;;;;;;;7.24;90.07;102792.97;5027583;28;20072;-79
2023/04/19 05:28:16;;;;;;;10.82;6.38;;;;;;;7.29;89.07;102799.28;5049785;28;20044;-79
2023/04/19 05:30:42;;;;;;;12.38;7.38;;;;;;;7.41;89.68;102787.59;5029354;28;20075;-79
2023/04/19 05:33:07;;;;;;;8.85;6.53;;;;;;;7.54;90.68;102791.50;5025141;28;20020;-79
2023/04/19 05:35:35;;;;;;;10.25;7.43;;;;;;;7.50;90.15;102805.22;5014743;28;20033;-79
2023/04/19 05:38:01;;;;;;;14.18;8.20;;;;;;;7.32;88.42;102797.81;5028137;28;20074;-79
2023/04/19 05:40:28;;;;;;;10.13;6.63;;;;;;;7.12;90.10;102790.66;5020475;28;20033;-79
2023/04/19 05:42:53;;;;;;;11.77;7.22;;;;;;;6.68;90.38;102792.00;5033759;28;20082;-79
2023/04/19 05:45:21;;;;;;;13.15;7.35;;;;;;;6.90;88.87;102796.94;5018214;28;20018;-78
2023/04/19 05:47:46;;;;;;;10.38;6.35;;;;;;;7.23;90.12;102796.88;5015132;28;20108;-78
2023/04/19 05:50:13;;;;;;;13.65;8.05;;;;;;;7.20;88.18;102801.09;5025792;28;20564;-78
2023/04/19 05:52:39;;;;;;;15.10;7.32;;;;;;;7.11;86.87;102802.97;5020281;28;20029;-79
2023/04/19 05:55:04;;;;;;;10.70;7.00;;;;;;;6.98;87.25;102796.25;5018829;28;20028;-79
2023/04/19 05:57:30;;;;;;;12.80;7.50;;;;;;;7.06;88.27;102803.88;5018443;28;20041;-79
2023/04/19 05:59:55;;;;;;;13.02;7.57;;;;;;;7.17;91.18;102803.66;5020279;28;20409;-79
2023/04/19 06:02:20;;;;;;;13.35;7.55;;;;;;;7.21;87.16;102802.78;5024151;28;20037;-79
2023/04/19 06:04:46;;;;;;;13.75;7.13;;;;;;;7.27;87.50;102803.47;5021431;28;20040;-78
2023/04/19 06:07:11;;;;;;;13.82;7.18;;;;;;;7.60;90.40;102803.41;5030511;28;20029;-81
2023/04/19 06:09:36;;;;;;;11.68;7.53;;;;;;;7.52;91.32;102808.53;5036984;28;20013;-77
2023/04/19 06:12:02;;;;;;;12.77;6.65;;;;;;;7.56;84.13;102808.75;5037287;28;20473;-79
2023/04/19 06:14:30;;;;;;;10.07;6.57;;;;;;;7.54;85.20;102817.41;5020345;28;20547;-79
2023/04/19 06:16:55;;;;;;;15.82;7.15;;;;;;;7.26;85.31;102824.13;5035396;28;20401;-79
2023/04/19 06:19:21;;;;;;;14.95;7.55;;;;;;;7.33;86.64;102830.91;5036113;28;20020;-79
2023/04/19 06:21:46;;;;;;;13.55;6.95;;;;;;;7.43;84.83;102829.09;5034789;28;20047;-79
2023/04/19 06:24:12;;;;;;;11.35;7.40;;;;;;;7.35;85.73;102833.41;5022567;28;20033;-79
2023/04/19 06:26:37;;;;;;;15.15;7.55;;;;;;;7.95;84.54;102826.91;5021352;28;20047;-79
2023/04/19 06:29:03;;;;;;;9.65;6.65;;;;;;;7.58;85.71;102833.53;5025227;28;20037;-81
2023/04/19 06:31:28;;;;;;;12.20;7.32;;;;;;;7.48;87.07;102824.25;5042414;28;20028;-80
2023/04/19 06:33:54;;;;;;;16.65;6.93;;;;;;;7.54;85.20;102836.91;5042047;28;20079;-80
2023/04/19 06:36:19;;;;;;;10.63;6.75;;;;;;;7.38;84.01;102830.03;5039253;28;20035;-80
2023/04/19 06:38:45;;;;;;;13.23;7.00;;;;;;;7.52;83.40;102827.22;5024802;28;20110;-80
2023/04/19 06:41:10;;;;;;;12.25;7.30;;;;;;;7.68;82.24;102830.53;5041168;28;20388;-80
2023/04/19 06:43:36;;;;;;;10.20;6.20;;;;;;;7.60;81.14;102825.69;5017217;28;20048;-80
2023/04/19 06:46:03;;;;;;;9.45;6.18;;;;;;;7.60;83.04;102811.75;5013040;28;20021;-80
2023/04/19 06:48:29;;;;;;;11.57;6.05;;;;;;;7.55;83.44;102826.63;5031745;28;20029;-80
2023/04/19 06:50:55;;;;;;;12.90;6.65;;;;;;;7.62;81.48;102815.88;5017719;28;20513;-80
2023/04/19 06:53:21;;;;;;;10.05;5.80;;;;;;;7.67;79.97;102828.88;5028880;28;20029;-80
2023/04/19 06:55:46;;;;;;;10.48;5.45;;;;;;;7.69;78.69;102821.03;5038545;28;20029;-80
2023/04/19 06:58:11;;;;;;;10.18;5.78;;;;;;;7.72;79.83;102826.00;5039125;28;20501;-80
2023/04/19 07:00:37;;;;;;;13.50;4.95;;;;;;;9.42;100.00;102826.31;5032511;28;20374;-78
2023/04/19 07:03:02;;;;;;;11.90;5.30;;;;;;;8.34;78.12;102825.44;5017243;28;20381;-79
2023/04/19 07:05:29;;;;;;;8.02;5.60;;;;;;;8.09;78.39;102819.31;5035124;28;20036;-78
2023/04/19 07:07:55;;;;;;;13.32;5.50;;;;;;;7.93;76.02;102815.22;5038183;28;20098;-78
2023/04/19 07:10:20;;;;;;;10.10;6.53;;;;;;;7.97;76.33;102812.63;5033713;28;20402;-78
2023/04/19 07:12:45;;;;;;;14.20;5.50;;;;;;;8.04;79.11;102811.06;5044000;28;20025;-78
2023/04/19 07:15:11;;;;;;;7.03;4.30;;;;;;;8.04;75.64;102819.44;5039035;28;20033;-79
2023/04/19 07:17:36;;;;;;;9.30;4.95;;;;;;;8.13;75.34;102819.50;5027497;28;20026;-79
2023/04/19 07:20:04;;;;;;;6.95;4.68;;;;;;;8.10;74.87;102820.16;5043307;28;20024;-79
2023/04/19 07:22:29;;;;;;;8.35;4.82;;;;;;;8.18;73.78;102816.63;5029761;28;20025;-79
2023/04/19 07:24:54;;;;;;;7.68;4.82;;;;;;;8.14;73.16;102807.22;5022051;28;20036;-79
2023/04/19 07:27:20;;;;;;;8.07;5.38;;;;;;;8.34;75.54;102817.91;5045473;28;20056;-79
2023/04/19 07:29:45;;;;;;;15.90;4.88;;;;;;;8.42;73.60;102810.78;5026642;28;20090;-79
2023/04/19 07:32:12;;;;;;;10.05;4.85;;;;;;;8.39;73.02;102813.34;5030997;28;20032;-78
2023/04/19 07:34:40;;;;;;;10.73;4.78;;;;;;;8.44;70.01;102816.06;5032525;28;20040;-79
2023/04/19 07:37:05;;;;;;;6.95;5.03;;;;;;;8.54;70.67;102821.41;5024564;28;20091;-80
2023/04/19 07:39:31;;;;;;;7.00;4.13;;;;;;;8.59;70.26;102823.22;5029164;28;20025;-79
2023/04/19 07:41:56;;;;;;;9.05;4.30;;;;;;;8.57;69.52;102823.53;5027382;28;20029;-79
2023/04/19 07:44:22;;;;;;;6.90;3.97;;;;;;;8.78;68.72;102823.03;5027244;28;20025;-79
2023/04/19 07:46:47;;;;;;;7.30;4.30;;;;;;;8.69;67.73;102815.41;5028761;28;20044;-79
2023/04/19 07:49:13;;;;;;;8.10;3.92;;;;;;;8.74;69.08;102806.09;5040614;28;20048;-79
2023/04/19 07:51:38;;;;;;;9.95;4.43;;;;;;;8.91;68.84;102808.97;5044142;28;20028;-78
2023/04/19 07:54:04;;;;;;;8.60;4.35;;;;;;;8.87;67.95;102804.34;5048966;28;20021;-78
2023/04/19 07:56:29;;;;;;;5.40;3.67;;;;;;;8.96;66.87;102805.25;5049077;28;20029;-79
2023/04/19 07:58:55;;;;;;;6.88;3.45;;;;;;;9.04;64.67;102804.44;5042511;28;20051;-79
2023/04/19 08:01:20;;;;;;;8.45;4.60;;;;;;;8.99;64.71;102801.81;5022717;28;20028;-79
2023/04/19 08:03:46;;;;;;;8.25;4.35;;;;;;;9.08;66.46;102797.06;5045098;28;20131;-78
2023/04/19 08:06:13;;;;;;;8.88;3.78;;;;;;;9.16;65.73;102799.09;5032438;28;20036;-78
2023/04/19 08:08:38;;;;;;;4.88;3.00;;;;;;;9.34;68.65;102802.81;5028420;28;20542;-78
2023/04/19 08:11:04;;;;;;;5.03;4.18;;;;;;;9.33;66.88;102795.56;5031051;28;20033;-78
2023/04/19 08:13:29;;;;;;;7.30;3.55;;;;;;;9.45;63.40;102792.16;5037536;28;20025;-78
2023/04/19 08:15:55;;;;;;;5.97;3.78;;;;;;;9.49;66.56;102798.75;5026015;28;20485;-79
2023/04/19 08:18:20;;;;;;;5.82;3.25;;;;;;;9.67;62.72;102793.19;5046385;28;20017;-78
2023/04/19 08:20:46;;;;;;;5.78;2.85;;;;;;;9.76;62.25;102800.47;5048116;28;20447;-78
2023/04/19 08:23:12;;;;;;;6.22;2.80;;;;;;;9.69;62.24;102802.09;5027981;28;20469;-78
2023/04/19 08:25:37;;;;;;;7.18;2.70;;;;;;;9.70;61.15;102795.38;5045623;28;20083;-79
2023/04/19 08:28:03;;;;;;;4.82;2.88;;;;;;;9.83;61.37;102794.41;5033933;28;20033;-78
2023/04/19 08:30:29;;;;;;;5.10;3.30;;;;;;;9.78;63.14;102788.94;5039005;28;20687;-78
2023/04/19 08:32:55;;;;;;;6.80;3.00;;;;;;;9.85;60.92;102789.31;5037896;28;20116;-78
2023/04/19 08:35:20;;;;;;;4.10;2.53;;;;;;;10.05;64.91;102795.41;5023403;28;20437;-78
2023/04/19 08:37:47;;;;;;;5.28;2.53;;;;;;;10.01;62.06;102797.22;5043545;28;20068;-78
2023/04/19 08:40:13;;;;;;;5.57;2.42;;;;;;;10.06;57.08;102800.69;5039944;28;20481;-78
2023/04/19 08:42:39;;;;;;;3.95;2.20;;;;;;;10.01;62.67;102797.22;5027113;28;20043;-78
2023/04/19 08:45:05;;;;;;;3.58;2.10;;;;;;;9.99;58.56;102794.75;5046204;28;20037;-78
2023/04/19 08:47:35;;;;;;;5.82;2.65;;;;;;;10.09;60.13;102794.41;5051657;28;20103;-79
2023/04/19 08:50:05;;;;;;;4.40;2.20;;;;;;;10.25;55.56;102791.16;5028098;28;20121;-79
2023/04/19 08:52:33;;;;;;;3.00;2.38;;;;;;;10.34;54.63;102784.41;5025418;28;20171;-79
2023/04/19 08:55:02;;;;;;;4.53;2.10;;;;;;;10.31;58.47;102779.50;5042549;28;20460;-79
2023/04/19 08:57:31;;;;;;;4.53;2.20;;;;;;;10.37;54.55;102778.19;5042857;28;20060;-79
2023/04/19 08:59:56;;;;;;;3.42;1.98;;;;;;;10.41;58.95;102778.31;5030047;28;20121;-79
2023/04/19 09:02:22;;;;;;;3.83;2.15;;;;;;;10.49;61.78;102785.91;5028409;28;20622;-79
2023/04/19 09:04:48;;;;;;;3.45;2.20;;;;;;;10.55;55.54;102776.16;5046574;28;20390;-79
2023/04/19 09:07:24;;;;;;;2.53;1.90;;;;;;;10.69;54.88;102762.00;5031429;28;20029;-79
2023/04/19 09:10:10;;;;;;;3.38;2.13;;;;;;;10.69;58.31;102775.16;5042353;28;20439;-78
2023/04/19 09:12:36;;;;;;;6.05;2.42;;;;;;;10.72;57.94;102775.31;5045760;28;20045;-78
2023/04/19 09:15:04;;;;;;;4.90;2.92;;;;;;;10.90;55.14;102772.47;5043589;28;20032;-79
2023/04/19 09:17:30;;;;;;;9.25;3.25;;;;;;;11.13;51.37;102776.69;5038581;28;20032;-79
2023/04/19 09:19:57;;;;;;;5.45;2.72;;;;;;;11.06;52.45;102773.56;5027072;28;20473;-79
2023/04/19 09:22:22;;;;;;;4.22;3.30;;;;;;;10.91;53.29;102771.31;5043374;28;20032;-79
2023/04/19 09:24:48;;;;;;;5.57;3.10;;;;;;;11.04;53.78;102773.09;5040627;28;20397;-79
2023/04/19 09:27:30;;;;;;;6.22;2.80;;;;;;;11.12;51.72;102772.22;5019297;28;20288;-80
2023/04/19 09:29:57;;;;;;;6.50;2.45;;;;;;;11.00;52.28;102766.50;5024625;28;20536;-80
2023/04/19 09:32:23;;;;;;;3.58;2.85;;;;;;;11.22;50.40;102767.44;5034296;28;20113;-79
2023/04/19 09:34:56;;;;;;;5.85;4.20;;;;;;;11.15;52.82;102767.94;5027992;28;20124;-79
2023/04/19 09:37:23;;;;;;;3.58;2.97;;;;;;;11.42;51.41;102777.88;5027572;28;20044;-79
2023/04/19 09:39:48;;;;;;;7.00;3.85;;;;;;;11.66;50.39;102768.00;5024342;28;20120;-80
2023/04/19 09:42:14;;;;;;;4.60;3.38;;;;;;;11.59;46.64;102763.78;5023896;28;20678;-79
2023/04/19 09:44:39;;;;;;;12.75;4.63;;;;;;;11.69;49.52;102745.72;5027945;28;20603;-79
2023/04/19 09:47:23;;;;;;;5.85;4.03;;;;;;;11.70;48.46;102755.78;5045746;28;20496;-79
2023/04/19 09:50:09;;;;;;;8.38;3.25;;;;;;;11.76;46.21;102754.44;5043879;28;20032;-78
2023/04/19 09:52:35;;;;;;;6.85;4.30;;;;;;;11.72;45.90;102747.00;5043494;28;20060;-78
2023/04/19 09:55:03;;;;;;;6.50;3.47;;;;;;;11.70;45.45;102749.34;5018813;28;20036;-78
2023/04/19 09:57:32;;;;;;;4.50;3.22;;;;;;;11.83;46.82;102751.09;5033079;28;20044;-78
2023/04/19 09:59:59;;;;;;;9.40;3.67;;;;;;;11.88;47.52;102745.28;5039334;28;20039;-80
2023/04/19 10:02:29;;;;;;;8.57;4.97;;;;;;;12.11;45.22;102753.38;5035791;28;20543;-78
2023/04/19 10:04:56;;;;;;;5.03;3.22;;;;;;;11.91;45.62;102749.38;5034472;28;20033;-78
2023/04/19 10:07:21;;;;;;;5.63;4.80;;;;;;;12.11;50.41;102739.34;5036390;28;20508;-78
2023/04/19 10:09:48;;;;;;;5.57;3.78;;;;;;;12.23;48.32;102736.59;5039071;28;20041;-78
2023/04/19 10:12:14;;;;;;;6.18;3.67;;;;;;;12.28;45.99;102741.97;5023324;28;20579;-78
2023/04/19 10:14:41;;;;;;;4.72;3.30;;;;;;;12.44;47.25;102738.53;5016219;28;20401;-78
2023/04/19 10:17:07;;;;;;;7.93;3.28;;;;;;;12.71;47.81;102725.84;5032436;28;20029;-77
2023/04/19 10:19:34;;;;;;;7.05;3.90;;;;;;;12.62;46.39;102745.63;5039973;28;20033;-78
2023/04/19 10:22:04;;;;;;;6.53;3.60;;;;;;;12.79;46.57;102739.81;5035870;28;20040;-78
2023/04/19 10:24:30;;;;;;;6.35;3.88;;;;;;;12.88;43.43;102730.47;5022568;28;20052;-77
2023/04/19 10:27:15;;;;;;;9.40;3.83;;;;;;;12.87;45.37;102723.22;5036221;28;20028;-79
2023/04/19 10:29:54;;;;;;;4.82;2.97;;;;;;;12.98;42.69;102736.44;5013452;28;20087;-78
2023/04/19 10:32:26;;;;;;;4.82;3.42;;;;;;;13.18;40.73;102723.47;5014873;28;20481;-78
2023/04/19 10:34:55;;;;;;;5.43;3.72;;;;;;;13.12;39.44;102710.81;5044659;28;20496;-78
2023/04/19 10:37:23;;;;;;;5.00;3.38;;;;;;;12.92;41.11;102714.53;5040057;28;20091;-78
2023/04/19 10:39:49;;;;;;;6.70;3.55;;;;;;;12.86;38.11;102710.31;5037711;28;20449;-78
2023/04/19 10:42:15;;;;;;;9.98;3.47;;;;;;;13.17;39.51;102710.56;5031503;28;20416;-78
2023/04/19 10:44:40;;;;;;;8.65;3.70;;;;;;;12.51;44.08;102705.09;5034204;28;20107;-79
2023/04/19 10:47:05;;;;;;;5.50;4.40;;;;;;;12.94;45.57;102695.34;5048459;28;20373;-78
2023/04/19 10:49:42;;;;;;;17.52;3.53;;;;;;;13.30;45.99;102703.00;5023133;28;20018;-78
2023/04/19 10:52:26;;;;;;;6.10;3.30;;;;;;;13.84;43.55;102687.78;5028681;28;20028;-78
2023/04/19 10:54:55;;;;;;;5.53;3.78;;;;;;;13.51;46.16;102700.03;5037385;28;20390;-78
2023/04/19 10:57:21;;;;;;;7.47;3.33;;;;;;;13.13;47.88;102701.19;5034232;28;20021;-78
2023/04/19 11:00:21;;;;;;;7.10;3.75;;;;;;;12.81;45.83;102698.13;5043246;28;20016;-78
2023/04/19 11:02:47;;;;;;;7.25;3.60;;;;;;;12.72;44.18;102680.56;5039081;28;20033;-78
2023/04/19 11:05:13;;;;;;;4.80;3.17;;;;;;;13.79;42.39;102682.41;5041096;28;20145;-78
2023/04/19 11:07:40;;;;;;;7.53;3.28;;;;;;;13.65;45.77;102679.16;5045697;28;20547;-78
2023/04/19 11:10:06;;;;;;;6.72;3.30;;;;;;;13.68;44.54;102672.81;5041592;28;20489;-78
2023/04/19 11:12:32;;;;;;;6.80;3.35;;;;;;;14.11;43.07;102672.06;5049069;28;20025;-78
2023/04/19 11:15:01;;;;;;;6.40;3.75;;;;;;;13.90;46.74;102677.91;5033940;28;20108;-78
2023/04/19 11:17:31;;;;;;;7.95;4.40;;;;;;;14.00;43.07;102674.59;5039255;28;20028;-78